createdAt,value
2018-11-23T00:00:20.773Z,100650.00
2018-11-23T00:02:48.968Z,100653.00
2018-11-23T00:05:16.838Z,100652.00
2018-11-23T00:07:45.091Z,100650.00
2018-11-23T00:10:13.933Z,100649.00
2018-11-23T00:12:41.682Z,100655.00
2018-11-23T00:15:11.757Z,100648.00
2018-11-23T00:17:39.481Z,100653.00
2018-11-23T00:20:10.786Z,100651.00
2018-11-23T00:22:38.624Z,100658.00
2018-11-23T00:25:08.349Z,100650.00
2018-11-23T00:27:36.454Z,100657.00
2018-11-23T00:30:05.401Z,100658.00
2018-11-23T00:32:33.016Z,100663.00
2018-11-23T00:35:00.667Z,100661.00
2018-11-23T00:37:28.321Z,100666.00
2018-11-23T00:39:55.909Z,100664.00
2018-11-23T00:42:26.977Z,100668.00
2018-11-23T00:44:54.551Z,100670.00
2018-11-23T00:47:33.397Z,100668.00
2018-11-23T00:50:01.146Z,100657.00
2018-11-23T00:52:28.843Z,100660.00
2018-11-23T00:54:56.442Z,100654.00
2018-11-23T00:57:24.051Z,100657.00
2018-11-23T00:59:51.615Z,100660.00
2018-11-23T01:02:19.670Z,100660.00
2018-11-23T01:04:47.225Z,100661.00
2018-11-23T01:07:14.804Z,100663.00
2018-11-23T01:09:42.634Z,100663.00
2018-11-23T01:12:10.164Z,100658.00
2018-11-23T01:14:37.741Z,100654.00
2018-11-23T01:17:06.595Z,100651.00
2018-11-23T01:19:34.318Z,100650.00
2018-11-23T01:22:02.439Z,100654.00
2018-11-23T01:24:29.998Z,100650.00
2018-11-23T01:26:57.603Z,100649.00
2018-11-23T01:29:25.255Z,100648.00
2018-11-23T01:31:53.020Z,100642.00
2018-11-23T01:34:20.609Z,100650.00
2018-11-23T01:36:48.446Z,100647.00
2018-11-23T01:39:16.083Z,100641.00
2018-11-23T01:41:43.778Z,100640.00
2018-11-23T01:44:11.395Z,100644.00
2018-11-23T01:46:38.941Z,100640.00
2018-11-23T01:49:06.193Z,100640.00
2018-11-23T01:51:33.914Z,100639.00
2018-11-23T01:54:01.574Z,100639.00
2018-11-23T01:56:29.186Z,100641.00
2018-11-23T01:58:57.764Z,100644.00
2018-11-23T02:01:25.565Z,100639.00
2018-11-23T02:03:53.162Z,100640.00
2018-11-23T02:06:20.940Z,100643.00
2018-11-23T02:08:49.033Z,100639.00
2018-11-23T02:11:16.651Z,100639.00
2018-11-23T02:13:44.493Z,100634.00
2018-11-23T02:16:12.045Z,100632.00
2018-11-23T02:18:39.674Z,100631.00
2018-11-23T02:21:07.331Z,100631.00
2018-11-23T02:23:34.878Z,100629.00
2018-11-23T02:26:12.241Z,100630.00
2018-11-23T02:28:39.755Z,100632.00
2018-11-23T02:31:08.194Z,100629.00
2018-11-23T02:33:38.076Z,100628.00
2018-11-23T02:36:06.412Z,100626.00
2018-11-23T02:38:33.990Z,100620.00
2018-11-23T02:41:01.643Z,100619.00
2018-11-23T02:43:29.177Z,100620.00
2018-11-23T02:45:56.736Z,100614.00
2018-11-23T02:48:24.310Z,100617.00
2018-11-23T02:50:51.845Z,100622.00
2018-11-23T02:53:19.921Z,100624.00
2018-11-23T02:55:47.436Z,100620.00
2018-11-23T02:58:15.007Z,100621.00
2018-11-23T03:00:42.817Z,100618.00
2018-11-23T03:03:10.366Z,100618.00
2018-11-23T03:05:37.993Z,100615.00
2018-11-23T03:08:06.140Z,100615.00
2018-11-23T03:10:33.805Z,100611.00
2018-11-23T03:13:06.090Z,100616.00
2018-11-23T03:15:33.649Z,100618.00
2018-11-23T03:18:01.163Z,100613.00
2018-11-23T03:20:28.897Z,100615.00
2018-11-23T03:22:56.421Z,100616.00
2018-11-23T03:25:24.065Z,100627.00
2018-11-23T03:27:51.932Z,100617.00
2018-11-23T03:30:22.155Z,100621.00
2018-11-23T03:32:50.324Z,100623.00
2018-11-23T03:35:18.645Z,100624.00
2018-11-23T03:37:46.516Z,100623.00
2018-11-23T03:40:14.192Z,100617.00
2018-11-23T03:42:42.344Z,100621.00
2018-11-23T03:45:11.276Z,100621.00
2018-11-23T03:47:39.262Z,100617.00
2018-11-23T03:50:08.372Z,100623.00
2018-11-23T03:52:35.991Z,100620.00
2018-11-23T03:55:03.952Z,100622.00
2018-11-23T03:57:31.770Z,100614.00
2018-11-23T03:59:59.278Z,100624.00
2018-11-23T04:02:27.109Z,100617.00
2018-11-23T04:04:55.176Z,100622.00
2018-11-23T04:07:23.111Z,100623.00
2018-11-23T04:09:50.638Z,100624.00
2018-11-23T04:12:18.603Z,100625.00
2018-11-23T04:14:46.160Z,100620.00
2018-11-23T04:17:13.764Z,100627.00
2018-11-23T04:19:41.631Z,100625.00
2018-11-23T04:22:09.186Z,100623.00
2018-11-23T04:24:36.857Z,100614.00
2018-11-23T04:27:04.689Z,100604.00
2018-11-23T04:29:32.314Z,100608.00
2018-11-23T04:31:59.928Z,100609.00
2018-11-23T04:34:27.824Z,100604.00
2018-11-23T04:36:55.816Z,100594.00
2018-11-23T04:39:23.637Z,100604.00
2018-11-23T04:41:51.276Z,100603.00
2018-11-23T04:44:18.880Z,100604.00
2018-11-23T04:46:46.670Z,100601.00
2018-11-23T04:49:14.092Z,100602.00
2018-11-23T04:51:41.651Z,100603.00
2018-11-23T04:54:09.723Z,100597.00
2018-11-23T04:56:37.222Z,100598.00
2018-11-23T04:59:05.404Z,100604.00
2018-11-23T05:01:33.383Z,100594.00
2018-11-23T05:04:01.784Z,100587.00
2018-11-23T05:06:29.620Z,100586.00
2018-11-23T05:08:57.133Z,100589.00
2018-11-23T05:11:24.738Z,100584.00
2018-11-23T05:13:52.420Z,100584.00
2018-11-23T05:16:19.995Z,100591.00
2018-11-23T05:18:47.528Z,100597.00
2018-11-23T05:21:15.529Z,100597.00
2018-11-23T05:23:43.115Z,100597.00
2018-11-23T05:26:10.781Z,100601.00
2018-11-23T05:28:38.909Z,100600.00
2018-11-23T05:31:06.488Z,100604.00
2018-11-23T05:33:34.390Z,100608.00
2018-11-23T05:36:01.973Z,100615.00
2018-11-23T05:38:29.558Z,100610.00
2018-11-23T05:40:57.128Z,100610.00
2018-11-23T05:43:24.912Z,100620.00
2018-11-23T05:45:52.745Z,100618.00
2018-11-23T05:48:22.965Z,100618.00
2018-11-23T05:50:47.777Z,100615.00
2018-11-23T05:53:15.436Z,100616.00
2018-11-23T05:55:42.958Z,100617.00
2018-11-23T05:58:10.536Z,100619.00
2018-11-23T06:00:38.540Z,100618.00
2018-11-23T06:03:06.242Z,100620.00
2018-11-23T06:05:33.797Z,100618.00
2018-11-23T06:08:01.608Z,100619.00
2018-11-23T06:10:29.165Z,100615.00
2018-11-23T06:12:56.669Z,100623.00
2018-11-23T06:15:24.914Z,100630.00
2018-11-23T06:17:52.680Z,100627.00
2018-11-23T06:20:22.954Z,100624.00
2018-11-23T06:22:51.766Z,100622.00
2018-11-23T06:25:24.342Z,100618.00
2018-11-23T06:27:52.228Z,100615.00
2018-11-23T06:30:19.792Z,100615.00
2018-11-23T06:33:05.418Z,100611.00
2018-11-23T06:35:32.924Z,100614.00
2018-11-23T06:38:00.454Z,100613.00
2018-11-23T06:40:28.086Z,100613.00
2018-11-23T06:42:55.649Z,100611.00
2018-11-23T06:45:23.400Z,100606.00
2018-11-23T06:47:51.201Z,100608.00
2018-11-23T06:50:19.444Z,100606.00
2018-11-23T06:52:47.447Z,100608.00
2018-11-23T06:55:15.004Z,100605.00
2018-11-23T06:57:42.569Z,100613.00
2018-11-23T07:00:14.070Z,100617.00
2018-11-23T07:02:42.269Z,100615.00
2018-11-23T07:05:10.447Z,100618.00
2018-11-23T07:07:38.025Z,100621.00
2018-11-23T07:10:07.672Z,100620.00
2018-11-23T07:12:36.174Z,100623.00
2018-11-23T07:15:05.109Z,100620.00
2018-11-23T07:17:32.631Z,100621.00
2018-11-23T07:20:00.409Z,100628.00
2018-11-23T07:22:28.032Z,100632.00
2018-11-23T07:24:55.700Z,100633.00
2018-11-23T07:27:23.596Z,100628.00
2018-11-23T07:29:51.273Z,100624.00
2018-11-23T07:32:18.883Z,100622.00
2018-11-23T07:34:46.658Z,100628.00
2018-11-23T07:37:14.734Z,100626.00
2018-11-23T07:40:00.154Z,100620.00
2018-11-23T07:42:29.093Z,100620.00
2018-11-23T07:44:57.585Z,100618.00
2018-11-23T07:47:25.405Z,100610.00
2018-11-23T07:49:53.249Z,100607.00
2018-11-23T07:52:20.813Z,100610.00
2018-11-23T07:54:48.817Z,100607.00
2018-11-23T07:57:16.493Z,100613.00
2018-11-23T07:59:44.034Z,100611.00
2018-11-23T08:02:12.711Z,100611.00
2018-11-23T08:04:41.145Z,100612.00
2018-11-23T08:07:09.774Z,100615.00
2018-11-23T08:09:38.641Z,100613.00
2018-11-23T08:12:06.686Z,100611.00
2018-11-23T08:14:34.377Z,100608.00
2018-11-23T08:17:02.185Z,100611.00
2018-11-23T08:19:30.101Z,100606.00
2018-11-23T08:21:57.615Z,100597.00
2018-11-23T08:24:25.201Z,100604.00
2018-11-23T08:26:53.193Z,100605.00
2018-11-23T08:29:21.082Z,100602.00
2018-11-23T08:31:49.152Z,100601.00
2018-11-23T08:34:24.723Z,100606.00
2018-11-23T08:36:52.568Z,100601.00
2018-11-23T08:39:20.169Z,100599.00
2018-11-23T08:41:47.895Z,100602.00
2018-11-23T08:44:15.616Z,100605.00
2018-11-23T08:46:43.239Z,100607.00
2018-11-23T08:49:10.866Z,100612.00
2018-11-23T08:51:38.945Z,100617.00
2018-11-23T08:54:06.678Z,100616.00
2018-11-23T08:56:34.368Z,100616.00
2018-11-23T08:59:03.516Z,100618.00
2018-11-23T09:01:31.143Z,100620.00
2018-11-23T09:03:58.756Z,100617.00
2018-11-23T09:06:26.605Z,100611.00
2018-11-23T09:08:54.137Z,100603.00
2018-11-23T09:11:21.729Z,100608.00
2018-11-23T09:13:52.685Z,100607.00
2018-11-23T09:16:20.243Z,100610.00
2018-11-23T09:18:47.837Z,100603.00
2018-11-23T09:21:15.622Z,100601.00
2018-11-23T09:23:43.146Z,100608.00
2018-11-23T09:26:10.742Z,100607.00
2018-11-23T09:28:38.573Z,100605.00
2018-11-23T09:31:06.189Z,100600.00
2018-11-23T09:33:33.946Z,100602.00
2018-11-23T09:36:01.498Z,100601.00
2018-11-23T09:38:29.013Z,100606.00
2018-11-23T09:40:56.943Z,100592.00
2018-11-23T09:43:24.593Z,100583.00
2018-11-23T09:45:52.109Z,100581.00
2018-11-23T09:48:20.250Z,100573.00
2018-11-23T09:50:47.795Z,100568.00
2018-11-23T09:53:15.451Z,100561.00
2018-11-23T09:55:43.073Z,100552.00
2018-11-23T09:58:22.445Z,100552.00
2018-11-23T10:00:50.255Z,100545.00
2018-11-23T10:03:17.804Z,100547.00
2018-11-23T10:05:45.347Z,100551.00
2018-11-23T10:08:13.061Z,100548.00
2018-11-23T10:10:40.597Z,100546.00
2018-11-23T10:13:08.142Z,100545.00
2018-11-23T10:15:35.954Z,100543.00
2018-11-23T10:18:03.595Z,100538.00
2018-11-23T10:20:32.086Z,100534.00
2018-11-23T10:22:59.881Z,100533.00
2018-11-23T10:25:29.676Z,100528.00
2018-11-23T10:27:57.312Z,100531.00
2018-11-23T10:30:27.554Z,100531.00
2018-11-23T10:32:57.550Z,100530.00
2018-11-23T10:35:25.416Z,100526.00
2018-11-23T10:37:54.649Z,100527.00
2018-11-23T10:40:23.491Z,100522.00
2018-11-23T10:42:51.090Z,100520.00
2018-11-23T10:45:21.672Z,100516.00
2018-11-23T10:47:50.012Z,100511.00
2018-11-23T10:50:24.782Z,100499.00
2018-11-23T10:52:52.292Z,100507.00
2018-11-23T10:55:21.320Z,100498.00
2018-11-23T10:57:49.401Z,100498.00
2018-11-23T11:00:24.689Z,100489.00
2018-11-23T11:02:59.761Z,100479.00
2018-11-23T11:05:28.141Z,100479.00
2018-11-23T11:07:57.260Z,100485.00
2018-11-23T11:10:25.053Z,100479.00
2018-11-23T11:12:52.683Z,100480.00
2018-11-23T11:15:20.498Z,100467.00
2018-11-23T11:17:48.391Z,100463.00
2018-11-23T11:20:16.542Z,100463.00
2018-11-23T11:22:44.049Z,100462.00
2018-11-23T11:25:11.624Z,100455.00
2018-11-23T11:27:39.896Z,100447.00
2018-11-23T11:30:11.478Z,100451.00
2018-11-23T11:32:39.256Z,100447.00
2018-11-23T11:35:08.007Z,100444.00
2018-11-23T11:37:35.750Z,100451.00
2018-11-23T11:40:04.328Z,100452.00
2018-11-23T11:42:32.111Z,100436.00
2018-11-23T11:44:59.697Z,100437.00
2018-11-23T11:47:27.288Z,100436.00
2018-11-23T11:49:59.169Z,100437.00
2018-11-23T11:52:22.854Z,100431.00
2018-11-23T11:54:50.388Z,100425.00
2018-11-23T11:57:18.128Z,100426.00
2018-11-23T11:59:45.696Z,100417.00
2018-11-23T12:02:13.256Z,100420.00
2018-11-23T12:04:40.966Z,100419.00
2018-11-23T12:07:08.525Z,100420.00
2018-11-23T12:09:36.077Z,100411.00
2018-11-23T12:12:03.953Z,100412.00
2018-11-23T12:14:31.516Z,100405.00
2018-11-23T12:16:59.044Z,100402.00
2018-11-23T12:19:26.812Z,100402.00
2018-11-23T12:21:54.446Z,100402.00
2018-11-23T12:24:21.961Z,100405.00
2018-11-23T12:26:49.728Z,100411.00
2018-11-23T12:29:17.924Z,100398.00
2018-11-23T12:31:45.549Z,100399.00
2018-11-23T12:34:13.110Z,100391.00
2018-11-23T12:36:40.909Z,100388.00
2018-11-23T12:39:08.613Z,100391.00
2018-11-23T12:41:36.214Z,100383.00
2018-11-23T12:44:04.015Z,100386.00
2018-11-23T12:46:31.517Z,100391.00
2018-11-23T12:51:18.914Z,100380.00
2018-11-23T12:53:46.551Z,100375.00
2018-11-23T12:56:14.149Z,100372.00
2018-11-23T12:58:43.418Z,100369.00
2018-11-23T13:01:10.921Z,100373.00
2018-11-23T13:03:38.434Z,100368.00
2018-11-23T13:06:06.268Z,100363.00
2018-11-23T13:08:33.781Z,100368.00
2018-11-23T13:11:01.333Z,100363.00
2018-11-23T13:13:28.995Z,100367.00
2018-11-23T13:15:56.567Z,100360.00
2018-11-23T13:18:24.093Z,100359.00
2018-11-23T13:20:51.969Z,100355.00
2018-11-23T13:23:19.830Z,100360.00
2018-11-23T13:25:47.329Z,100362.00
2018-11-23T13:28:14.888Z,100358.00
2018-11-23T13:30:42.618Z,100356.00
2018-11-23T13:33:10.202Z,100362.00
2018-11-23T13:35:37.727Z,100359.00
2018-11-23T13:38:05.512Z,100366.00
2018-11-23T13:40:33.016Z,100367.00
2018-11-23T13:43:07.029Z,100366.00
2018-11-23T13:45:34.580Z,100358.00
2018-11-23T13:48:19.973Z,100366.00
2018-11-23T13:50:45.930Z,100367.00
2018-11-23T13:53:13.532Z,100367.00
2018-11-23T13:55:41.181Z,100371.00
2018-11-23T13:58:08.801Z,100371.00
2018-11-23T14:00:36.432Z,100371.00
2018-11-23T14:03:04.616Z,100368.00
2018-11-23T14:05:32.422Z,100363.00
2018-11-23T14:08:01.172Z,100361.00
2018-11-23T14:10:29.769Z,100367.00
2018-11-23T14:12:57.537Z,100359.00
2018-11-23T14:15:26.685Z,100364.00
2018-11-23T14:17:55.526Z,100362.00
2018-11-23T14:20:24.428Z,100354.00
2018-11-23T14:22:52.267Z,100353.00
2018-11-23T14:25:21.430Z,100358.00
2018-11-23T14:27:49.874Z,100362.00
2018-11-23T14:30:19.421Z,100362.00
2018-11-23T14:32:47.309Z,100348.00
2018-11-23T14:35:17.548Z,100348.00
2018-11-23T14:37:45.908Z,100346.00
2018-11-23T14:40:13.815Z,100348.00
2018-11-23T14:42:49.379Z,100346.00
2018-11-23T14:45:20.500Z,100339.00
2018-11-23T14:47:48.912Z,100344.00
2018-11-23T14:50:19.015Z,100338.00
2018-11-23T14:52:47.989Z,100344.00
2018-11-23T14:55:16.937Z,100344.00
2018-11-23T14:57:45.089Z,100342.00
2018-11-23T15:00:15.001Z,100346.00
2018-11-23T15:02:43.519Z,100346.00
2018-11-23T15:05:11.233Z,100352.00
2018-11-23T15:07:38.846Z,100352.00
2018-11-23T15:10:10.290Z,100352.00
2018-11-23T15:12:37.896Z,100349.00
2018-11-23T15:15:08.260Z,100349.00
2018-11-23T15:17:36.414Z,100345.00
2018-11-23T15:20:07.476Z,100353.00
2018-11-23T15:22:35.091Z,100358.00
2018-11-23T15:25:03.392Z,100342.00
2018-11-23T15:27:31.021Z,100343.00
2018-11-23T15:29:58.665Z,100347.00
2018-11-23T15:32:26.363Z,100345.00
2018-11-23T15:34:54.006Z,100352.00
2018-11-23T15:37:21.669Z,100364.00
2018-11-23T15:39:49.672Z,100357.00
2018-11-23T15:42:17.351Z,100354.00
2018-11-23T15:44:44.993Z,100355.00
2018-11-23T15:47:12.879Z,100345.00
2018-11-23T15:49:41.034Z,100347.00
2018-11-23T15:52:08.675Z,100345.00
2018-11-23T15:54:37.025Z,100349.00
2018-11-23T15:57:07.118Z,100351.00
2018-11-23T15:59:35.144Z,100355.00
2018-11-23T16:02:03.105Z,100345.00
2018-11-23T16:04:30.744Z,100351.00
2018-11-23T16:06:58.401Z,100350.00
2018-11-23T16:09:26.419Z,100356.00
2018-11-23T16:11:54.323Z,100358.00
2018-11-23T16:14:21.965Z,100362.00
2018-11-23T16:16:50.335Z,100364.00
2018-11-23T16:19:17.961Z,100365.00
2018-11-23T16:21:45.661Z,100368.00
2018-11-23T16:24:13.543Z,100366.00
2018-11-23T16:26:41.273Z,100362.00
2018-11-23T16:29:08.987Z,100359.00
2018-11-23T16:31:36.702Z,100357.00
2018-11-23T16:34:04.492Z,100357.00
2018-11-23T16:36:32.147Z,100351.00
2018-11-23T16:38:59.812Z,100351.00
2018-11-23T16:41:27.428Z,100343.00
2018-11-23T16:43:55.488Z,100342.00
2018-11-23T16:46:23.154Z,100337.00
2018-11-23T16:48:50.879Z,100332.00
2018-11-23T16:51:18.800Z,100328.00
2018-11-23T16:53:46.568Z,100323.00
2018-11-23T16:56:14.242Z,100324.00
2018-11-23T16:58:41.914Z,100325.00
2018-11-23T17:01:09.842Z,100320.00
2018-11-23T17:03:37.507Z,100317.00
2018-11-23T17:06:07.167Z,100315.00
2018-11-23T17:08:39.910Z,100306.00
2018-11-23T17:11:04.071Z,100307.00
2018-11-23T17:13:31.998Z,100309.00
2018-11-23T17:15:59.631Z,100307.00
2018-11-23T17:18:27.317Z,100310.00
2018-11-23T17:20:55.144Z,100313.00
2018-11-23T17:23:22.854Z,100315.00
2018-11-23T17:25:50.555Z,100320.00
2018-11-23T17:28:18.309Z,100320.00
2018-11-23T17:30:47.445Z,100322.00
2018-11-23T17:33:15.160Z,100326.00
2018-11-23T17:35:43.046Z,100327.00
2018-11-23T17:38:11.355Z,100326.00
2018-11-23T17:40:39.959Z,100331.00
2018-11-23T17:43:08.772Z,100332.00
2018-11-23T17:45:37.006Z,100332.00
2018-11-23T17:48:05.270Z,100331.00
2018-11-23T17:50:34.984Z,100327.00
2018-11-23T17:53:06.769Z,100324.00
2018-11-23T17:55:34.544Z,100317.00
2018-11-23T17:58:02.175Z,100320.00
2018-11-23T18:00:38.560Z,100324.00
2018-11-23T18:02:59.995Z,100325.00
2018-11-23T18:05:34.889Z,100317.00
2018-11-23T18:08:03.256Z,100313.00
2018-11-23T18:10:32.261Z,100312.00
2018-11-23T18:13:00.270Z,100313.00
2018-11-23T18:15:30.193Z,100309.00
2018-11-23T18:17:59.223Z,100309.00
2018-11-23T18:20:27.785Z,100308.00
2018-11-23T18:22:56.389Z,100304.00
2018-11-23T18:25:26.413Z,100299.00
2018-11-23T18:27:59.989Z,100298.00
2018-11-23T18:30:31.582Z,100285.00
2018-11-23T18:33:00.329Z,100280.00
2018-11-23T18:35:27.970Z,100278.00
2018-11-23T18:37:55.677Z,100273.00
2018-11-23T18:40:23.420Z,100272.00
2018-11-23T18:42:51.131Z,100269.00
2018-11-23T18:45:18.900Z,100271.00
2018-11-23T18:47:46.524Z,100269.00
2018-11-23T18:50:15.555Z,100259.00
2018-11-23T18:52:43.410Z,100254.00
2018-11-23T18:55:17.950Z,100252.00
2018-11-23T18:57:39.628Z,100251.00
2018-11-23T19:00:10.769Z,100245.00
2018-11-23T19:02:38.720Z,100242.00
2018-11-23T19:05:09.645Z,100240.00
2018-11-23T19:07:37.270Z,100247.00
2018-11-23T19:10:07.034Z,100249.00
2018-11-23T19:12:34.764Z,100243.00
2018-11-23T19:15:03.169Z,100243.00
2018-11-23T19:17:31.136Z,100241.00
2018-11-23T19:19:58.758Z,100238.00
2018-11-23T19:22:26.424Z,100234.00
2018-11-23T19:24:54.399Z,100227.00
2018-11-23T19:27:22.069Z,100226.00
2018-11-23T19:29:49.739Z,100227.00
2018-11-23T19:32:17.666Z,100218.00
2018-11-23T19:34:45.324Z,100216.00
2018-11-23T19:37:12.954Z,100216.00
2018-11-23T19:39:40.878Z,100210.00
2018-11-23T19:42:08.512Z,100206.00
2018-11-23T19:44:36.191Z,100207.00
2018-11-23T19:47:04.161Z,100206.00
2018-11-23T19:49:32.425Z,100207.00
2018-11-23T19:52:00.427Z,100206.00
2018-11-23T19:54:28.049Z,100204.00
2018-11-23T19:56:55.766Z,100200.00
2018-11-23T19:59:23.827Z,100199.00
2018-11-23T20:01:51.548Z,100191.00
2018-11-23T20:04:19.219Z,100197.00
2018-11-23T20:06:47.100Z,100193.00
2018-11-23T20:09:14.766Z,100190.00
2018-11-23T20:11:42.447Z,100184.00
2018-11-23T20:14:10.442Z,100177.00
2018-11-23T20:16:38.111Z,100177.00
2018-11-23T20:19:05.806Z,100173.00
2018-11-23T20:21:33.772Z,100177.00
2018-11-23T20:24:01.458Z,100172.00
2018-11-23T20:26:29.162Z,100170.00
2018-11-23T20:28:57.074Z,100172.00
2018-11-23T20:31:24.722Z,100164.00
2018-11-23T20:33:52.362Z,100165.00
2018-11-23T20:36:20.289Z,100165.00
2018-11-23T20:38:47.941Z,100160.00
2018-11-23T20:41:15.556Z,100160.00
2018-11-23T20:43:43.426Z,100151.00
2018-11-23T20:46:11.065Z,100151.00
2018-11-23T20:48:38.774Z,100146.00
2018-11-23T20:51:06.666Z,100147.00
2018-11-23T20:53:34.393Z,100142.00
2018-11-23T20:56:02.043Z,100136.00
2018-11-23T20:58:30.305Z,100135.00
2018-11-23T21:00:57.952Z,100129.00
2018-11-23T21:03:25.580Z,100128.00
2018-11-23T21:05:53.508Z,100120.00
2018-11-23T21:08:21.132Z,100115.00
2018-11-23T21:10:48.821Z,100113.00
2018-11-23T21:13:17.036Z,100116.00
2018-11-23T21:15:44.680Z,100112.00
2018-11-23T21:18:12.354Z,100107.00
2018-11-23T21:20:40.289Z,100101.00
2018-11-23T21:23:07.976Z,100091.00
2018-11-23T21:25:35.714Z,100086.00
2018-11-23T21:28:03.865Z,100080.00
2018-11-23T21:30:31.548Z,100075.00
2018-11-23T21:32:59.201Z,100077.00
2018-11-23T21:35:27.289Z,100070.00
2018-11-23T21:37:54.988Z,100066.00
2018-11-23T21:40:22.924Z,100070.00
2018-11-23T21:42:50.896Z,100068.00
2018-11-23T21:45:19.147Z,100069.00
2018-11-23T21:47:46.887Z,100062.00
2018-11-23T21:50:25.166Z,100064.00
2018-11-23T21:52:47.069Z,100065.00
2018-11-23T21:55:18.382Z,100064.00
2018-11-23T21:57:46.056Z,100063.00
2018-11-23T22:00:14.866Z,100069.00
2018-11-23T22:02:42.839Z,100077.00
2018-11-23T22:05:10.692Z,100078.00
2018-11-23T22:07:38.398Z,100077.00
2018-11-23T22:10:14.503Z,100083.00
2018-11-23T22:12:42.148Z,100085.00
2018-11-23T22:15:11.036Z,100074.00
2018-11-23T22:17:39.417Z,100067.00
2018-11-23T22:20:37.477Z,100067.00
2018-11-23T22:23:30.516Z,100062.00
2018-11-23T22:26:00.161Z,100063.00
2018-11-23T22:28:28.998Z,100055.00
2018-11-23T22:30:57.016Z,100049.00
2018-11-23T22:33:24.644Z,100051.00
2018-11-23T22:35:52.307Z,100048.00
2018-11-23T22:38:20.753Z,100050.00
2018-11-23T22:40:48.431Z,100045.00
2018-11-23T22:43:16.083Z,100044.00
2018-11-23T22:45:43.847Z,100040.00
2018-11-23T22:48:11.876Z,100033.00
2018-11-23T22:50:46.519Z,100029.00
2018-11-23T22:53:14.157Z,100024.00
2018-11-23T22:55:41.776Z,100025.00
2018-11-23T22:58:09.786Z,100018.00
2018-11-23T23:00:37.484Z,100017.00
2018-11-23T23:03:05.400Z,100014.00
2018-11-23T23:05:33.451Z,100017.00
2018-11-23T23:08:01.411Z,100013.00
2018-11-23T23:10:29.120Z,100009.00
2018-11-23T23:12:57.070Z,100009.00
2018-11-23T23:15:24.732Z,100009.00
2018-11-23T23:17:52.369Z,100001.00
2018-11-23T23:20:21.197Z,99997.00
2018-11-23T23:22:48.864Z,99998.00
2018-11-23T23:25:16.533Z,99995.00
2018-11-23T23:27:44.478Z,99994.00
2018-11-23T23:30:13.374Z,99984.00
2018-11-23T23:32:41.181Z,99979.00
2018-11-23T23:35:09.763Z,99972.00
2018-11-23T23:37:37.854Z,99970.00
2018-11-23T23:40:06.448Z,99965.00
2018-11-23T23:42:34.082Z,99959.00
2018-11-23T23:45:01.933Z,99966.00
2018-11-23T23:47:29.575Z,99959.00
2018-11-23T23:49:57.219Z,99956.00
2018-11-23T23:52:24.907Z,99952.00
2018-11-23T23:54:52.979Z,99944.00
2018-11-23T23:57:20.653Z,99939.00
2018-11-23T23:59:48.640Z,99942.00
